createdAt,value
2023-05-08T00:02:17.601Z,17.14
2023-05-08T00:04:45.437Z,17.14
2023-05-08T00:07:13.252Z,17.12
2023-05-08T00:09:42.426Z,17.09
2023-05-08T00:12:10.260Z,17.12
2023-05-08T00:14:38.300Z,17.12
2023-05-08T00:17:06.201Z,17.11
2023-05-08T00:19:34.068Z,17.12
2023-05-08T00:22:01.842Z,17.10
2023-05-08T00:24:29.657Z,17.08
2023-05-08T00:26:58.795Z,17.07
2023-05-08T00:29:26.794Z,17.07
2023-05-08T00:31:54.790Z,17.07
2023-05-08T00:34:23.021Z,17.06
2023-05-08T00:36:50.764Z,17.05
2023-05-08T00:39:18.581Z,17.05
2023-05-08T00:41:46.758Z,17.05
2023-05-08T00:44:16.116Z,17.05
2023-05-08T00:46:45.686Z,17.03
2023-05-08T00:49:14.610Z,17.02
2023-05-08T00:51:43.382Z,17.02
2023-05-08T00:54:12.194Z,17.01
2023-05-08T00:56:40.206Z,16.99
2023-05-08T00:59:13.018Z,16.98
2023-05-08T01:01:42.595Z,16.89
2023-05-08T01:04:11.006Z,16.96
2023-05-08T01:06:38.931Z,16.95
2023-05-08T01:09:07.803Z,16.91
2023-05-08T01:11:42.527Z,16.92
2023-05-08T01:14:17.618Z,16.92
2023-05-08T01:16:57.276Z,16.91
2023-05-08T01:19:54.216Z,16.90
2023-05-08T01:22:35.140Z,16.89
2023-05-08T01:25:41.689Z,16.88
2023-05-08T01:28:31.592Z,16.88
2023-05-08T01:31:06.702Z,16.88
2023-05-08T01:33:42.282Z,16.86
2023-05-08T01:36:21.811Z,16.85
2023-05-08T01:38:57.228Z,16.83
2023-05-08T01:41:28.744Z,16.84
2023-05-08T01:44:07.267Z,16.83
2023-05-08T01:46:35.186Z,16.83
2023-05-08T01:49:10.668Z,16.83
2023-05-08T01:51:50.196Z,16.83
2023-05-08T01:54:21.350Z,16.81
2023-05-08T01:56:51.515Z,16.83
2023-05-08T01:59:23.205Z,16.81
2023-05-08T02:01:55.167Z,16.81
2023-05-08T02:04:25.138Z,16.80
2023-05-08T02:06:54.644Z,16.80
2023-05-08T02:09:24.984Z,16.79
2023-05-08T02:11:54.475Z,16.73
2023-05-08T02:14:23.733Z,16.70
2023-05-08T02:16:53.770Z,16.78
2023-05-08T02:19:26.024Z,16.78
2023-05-08T02:21:56.208Z,16.76
2023-05-08T02:24:25.871Z,16.75
2023-05-08T02:26:54.713Z,16.75
2023-05-08T02:29:24.184Z,16.67
2023-05-08T02:31:54.558Z,16.74
2023-05-08T02:34:24.703Z,16.73
2023-05-08T02:36:54.526Z,16.73
2023-05-08T02:39:26.077Z,16.73
2023-05-08T02:41:53.926Z,16.72
2023-05-08T02:44:21.937Z,16.70
2023-05-08T02:46:57.316Z,16.69
2023-05-08T02:49:33.128Z,16.68
2023-05-08T02:52:07.249Z,16.68
2023-05-08T02:54:43.399Z,16.69
2023-05-08T02:57:19.830Z,16.67
2023-05-08T02:59:58.054Z,16.66
2023-05-08T03:02:33.439Z,16.65
2023-05-08T03:05:08.041Z,16.65
2023-05-08T03:07:39.980Z,16.64
2023-05-08T03:10:13.097Z,16.63
2023-05-08T03:12:44.525Z,16.62
2023-05-08T03:15:24.072Z,16.61
2023-05-08T03:17:55.959Z,16.60
2023-05-08T03:20:28.201Z,16.59
2023-05-08T03:22:57.160Z,16.60
2023-05-08T03:25:26.114Z,16.58
2023-05-08T03:27:54.939Z,16.58
2023-05-08T03:30:23.470Z,16.56
2023-05-08T03:32:53.846Z,16.56
2023-05-08T03:35:23.784Z,16.56
2023-05-08T03:37:53.909Z,16.56
2023-05-08T03:40:21.742Z,16.55
2023-05-08T03:42:51.105Z,16.56
2023-05-08T03:45:20.696Z,16.55
2023-05-08T03:47:49.445Z,16.54
2023-05-08T03:50:17.527Z,16.54
2023-05-08T03:52:45.390Z,16.53
2023-05-08T03:55:14.540Z,16.52
2023-05-08T03:57:51.417Z,16.52
2023-05-08T04:00:30.236Z,16.52
2023-05-08T04:03:10.061Z,16.51
2023-05-08T04:05:42.153Z,16.49
2023-05-08T04:08:17.421Z,16.49
2023-05-08T04:10:51.041Z,16.50
2023-05-08T04:13:24.759Z,16.48
2023-05-08T04:15:55.132Z,16.47
2023-05-08T04:18:29.363Z,16.48
2023-05-08T04:20:59.197Z,16.47
2023-05-08T04:23:29.692Z,16.46
2023-05-08T04:26:01.176Z,16.44
2023-05-08T04:28:29.485Z,16.43
2023-05-08T04:30:58.557Z,16.43
2023-05-08T04:33:26.586Z,16.43
2023-05-08T04:35:55.318Z,16.41
2023-05-08T04:38:23.219Z,16.42
2023-05-08T04:40:51.150Z,16.40
2023-05-08T04:43:20.452Z,16.32
2023-05-08T04:45:48.307Z,16.39
2023-05-08T04:48:16.384Z,16.39
2023-05-08T04:50:44.453Z,16.37
2023-05-08T04:53:12.307Z,16.37
2023-05-08T04:55:40.194Z,16.36
2023-05-08T04:58:08.032Z,16.34
2023-05-08T05:00:37.541Z,16.36
2023-05-08T05:03:05.413Z,16.35
2023-05-08T05:05:33.410Z,16.35
2023-05-08T05:08:01.272Z,16.35
2023-05-08T05:10:29.215Z,16.34
2023-05-08T05:12:57.093Z,16.33
2023-05-08T05:15:24.915Z,16.32
2023-05-08T05:17:54.243Z,16.32
2023-05-08T05:20:22.109Z,16.33
2023-05-08T05:22:49.850Z,16.31
2023-05-08T05:25:17.801Z,16.32
2023-05-08T05:27:45.613Z,16.31
2023-05-08T05:30:14.015Z,16.31
2023-05-08T05:32:42.288Z,16.31
2023-05-08T05:35:12.408Z,16.31
2023-05-08T05:37:40.545Z,16.30
2023-05-08T05:40:09.507Z,16.30
2023-05-08T05:42:37.720Z,16.30
2023-05-08T05:45:06.337Z,16.29
2023-05-08T05:47:34.205Z,16.30
2023-05-08T05:50:02.022Z,16.29
2023-05-08T05:52:31.618Z,16.30
2023-05-08T05:54:59.422Z,16.30
2023-05-08T05:57:27.395Z,16.21
2023-05-08T05:59:55.137Z,16.28
2023-05-08T06:02:23.246Z,16.28
2023-05-08T06:04:52.466Z,16.30
2023-05-08T06:07:21.097Z,16.30
2023-05-08T06:09:51.235Z,16.29
2023-05-08T06:12:19.317Z,16.30
2023-05-08T06:14:47.195Z,16.30
2023-05-08T06:17:15.064Z,16.31
2023-05-08T06:19:42.902Z,16.30
2023-05-08T06:22:10.691Z,16.28
2023-05-08T06:24:38.517Z,16.28
2023-05-08T06:27:07.629Z,16.30
2023-05-08T06:29:35.610Z,16.29
2023-05-08T06:32:03.398Z,16.30
2023-05-08T06:34:31.568Z,16.30
2023-05-08T06:36:59.404Z,16.31
2023-05-08T06:39:27.397Z,16.31
2023-05-08T06:41:55.189Z,16.31
2023-05-08T06:44:24.323Z,16.30
2023-05-08T06:46:52.131Z,16.28
2023-05-08T06:49:20.538Z,16.30
2023-05-08T06:51:48.483Z,16.30
2023-05-08T06:54:16.313Z,16.30
2023-05-08T06:56:44.241Z,16.31
2023-05-08T06:59:12.294Z,16.30
2023-05-08T07:01:41.790Z,16.31
2023-05-08T07:04:09.728Z,16.31
2023-05-08T07:06:37.568Z,16.31
2023-05-08T07:09:05.548Z,16.31
2023-05-08T07:11:33.370Z,16.31
2023-05-08T07:14:01.260Z,16.30
2023-05-08T07:16:29.448Z,16.31
2023-05-08T07:18:58.684Z,16.31
2023-05-08T07:21:26.804Z,16.31
2023-05-08T07:23:54.929Z,16.31
2023-05-08T07:26:22.890Z,16.31
2023-05-08T07:28:53.852Z,16.30
2023-05-08T07:31:21.890Z,16.31
2023-05-08T07:33:49.831Z,16.31
2023-05-08T07:36:18.932Z,16.32
2023-05-08T07:38:46.766Z,16.32
2023-05-08T07:41:14.614Z,16.33
2023-05-08T07:43:43.656Z,16.34
2023-05-08T07:46:17.955Z,16.33
2023-05-08T07:48:45.822Z,16.34
2023-05-08T07:51:14.410Z,16.33
2023-05-08T07:53:43.669Z,16.35
2023-05-08T07:56:11.469Z,16.36
2023-05-08T07:58:39.474Z,16.36
2023-05-08T08:01:07.315Z,16.37
2023-05-08T08:03:35.276Z,16.36
2023-05-08T08:06:03.180Z,16.36
2023-05-08T08:08:31.090Z,16.38
2023-05-08T08:11:01.720Z,16.38
2023-05-08T08:13:31.757Z,16.38
2023-05-08T08:15:59.794Z,16.38
2023-05-08T08:18:27.623Z,16.39
2023-05-08T08:20:55.423Z,16.40
2023-05-08T08:23:23.214Z,16.40
2023-05-08T08:25:51.498Z,16.41
2023-05-08T08:28:20.747Z,16.41
2023-05-08T08:30:48.608Z,16.41
2023-05-08T08:33:18.289Z,16.42
2023-05-08T08:35:46.898Z,16.42
2023-05-08T08:38:14.723Z,16.44
2023-05-08T08:40:43.590Z,16.44
2023-05-08T08:43:11.460Z,16.46
2023-05-08T08:45:40.762Z,16.36
2023-05-08T08:48:12.480Z,16.47
2023-05-08T08:50:44.019Z,16.48
2023-05-08T08:53:17.049Z,16.49
2023-05-08T08:55:48.195Z,16.51
2023-05-08T08:58:22.947Z,16.50
2023-05-08T09:00:54.840Z,16.52
2023-05-08T09:03:23.116Z,16.53
2023-05-08T09:05:51.167Z,16.55
2023-05-08T09:08:19.803Z,16.56
2023-05-08T09:10:48.182Z,16.57
2023-05-08T09:13:17.343Z,16.58
2023-05-08T09:15:46.906Z,16.59
2023-05-08T09:18:16.042Z,16.59
2023-05-08T09:20:45.580Z,16.62
2023-05-08T09:23:14.805Z,16.63
2023-05-08T09:25:43.745Z,16.64
2023-05-08T09:28:18.432Z,16.66
2023-05-08T09:30:53.952Z,16.67
2023-05-08T09:33:26.228Z,16.62
2023-05-08T09:35:54.366Z,16.71
2023-05-08T09:38:36.368Z,16.70
2023-05-08T09:41:09.255Z,16.74
2023-05-08T09:43:37.492Z,16.73
2023-05-08T09:46:23.163Z,16.74
2023-05-08T09:48:53.899Z,16.75
2023-05-08T09:51:21.985Z,16.77
2023-05-08T09:53:52.800Z,16.77
2023-05-08T09:56:36.587Z,16.79
2023-05-08T09:59:06.720Z,16.81
2023-05-08T10:01:36.561Z,16.82
2023-05-08T10:04:06.460Z,16.83
2023-05-08T10:06:36.362Z,16.85
2023-05-08T10:09:21.885Z,16.86
2023-05-08T10:11:53.120Z,16.88
2023-05-08T10:14:22.815Z,16.88
2023-05-08T10:16:52.910Z,16.88
2023-05-08T10:19:23.493Z,16.88
2023-05-08T10:21:52.775Z,16.87
2023-05-08T10:24:22.077Z,16.88
2023-05-08T10:27:06.867Z,16.88
2023-05-08T10:29:42.577Z,16.88
2023-05-08T10:32:11.573Z,16.88
2023-05-08T10:34:42.726Z,16.89
2023-05-08T10:37:11.345Z,16.90
2023-05-08T10:39:41.448Z,16.90
2023-05-08T10:42:09.570Z,16.92
2023-05-08T10:44:38.185Z,16.91
2023-05-08T10:47:16.220Z,16.94
2023-05-08T10:49:52.791Z,16.94
2023-05-08T10:52:26.135Z,16.95
2023-05-08T10:55:19.892Z,16.95
2023-05-08T10:58:30.731Z,16.95
2023-05-08T11:01:16.117Z,16.96
2023-05-08T11:03:50.666Z,16.98
2023-05-08T11:06:44.357Z,16.99
2023-05-08T11:09:16.904Z,17.00
2023-05-08T11:11:55.892Z,17.03
2023-05-08T11:14:24.907Z,17.02
2023-05-08T11:17:09.101Z,17.07
2023-05-08T11:19:39.045Z,17.08
2023-05-08T11:22:24.857Z,17.09
2023-05-08T11:25:05.079Z,17.09
2023-05-08T11:27:38.204Z,17.12
2023-05-08T11:30:24.528Z,17.14
2023-05-08T11:33:00.261Z,17.17
2023-05-08T11:35:53.036Z,17.18
2023-05-08T11:38:41.013Z,17.20
2023-05-08T11:41:09.821Z,17.14
2023-05-08T11:44:20.632Z,17.23
2023-05-08T11:46:53.845Z,17.26
2023-05-08T11:49:27.397Z,17.15
2023-05-08T11:52:00.347Z,17.23
2023-05-08T11:54:31.598Z,17.32
2023-05-08T11:56:59.694Z,17.34
2023-05-08T11:59:27.784Z,17.27
2023-05-08T12:04:26.428Z,17.38
2023-05-08T12:06:59.723Z,17.43
2023-05-08T12:09:29.020Z,17.46
2023-05-08T12:11:59.971Z,17.49
2023-05-08T12:14:28.045Z,17.50
2023-05-08T12:16:55.962Z,17.54
2023-05-08T12:19:23.830Z,17.57
2023-05-08T12:21:51.653Z,17.59
2023-05-08T12:24:23.247Z,17.62
2023-05-08T12:26:55.592Z,17.58
2023-05-08T12:29:23.787Z,17.75
2023-05-08T12:31:52.240Z,17.81
2023-05-08T12:34:20.770Z,17.85
2023-05-08T12:36:48.693Z,17.88
2023-05-08T12:39:18.232Z,17.89
2023-05-08T12:41:49.879Z,17.92
2023-05-08T12:44:25.028Z,17.93
2023-05-08T12:46:53.927Z,17.93
2023-05-08T12:49:26.287Z,17.87
2023-05-08T12:52:02.382Z,17.97
2023-05-08T12:54:34.321Z,18.01
2023-05-08T12:57:02.075Z,18.04
2023-05-08T12:59:33.282Z,18.09
2023-05-08T13:02:01.113Z,18.11
2023-05-08T13:04:29.214Z,18.08
2023-05-08T13:06:57.537Z,18.15
2023-05-08T13:09:25.412Z,18.16
2023-05-08T13:11:53.166Z,18.17
2023-05-08T13:14:21.014Z,18.20
2023-05-08T13:16:51.805Z,18.23
2023-05-08T13:19:20.048Z,18.24
2023-05-08T13:21:47.905Z,18.25
2023-05-08T13:24:16.032Z,18.26
2023-05-08T13:26:44.153Z,18.26
2023-05-08T13:29:11.982Z,18.28
2023-05-08T13:31:39.844Z,18.28
2023-05-08T13:34:10.069Z,18.29
2023-05-08T13:36:37.978Z,18.32
2023-05-08T13:39:06.560Z,18.35
2023-05-08T13:41:34.372Z,18.36
2023-05-08T13:44:02.180Z,18.38
2023-05-08T13:46:30.072Z,18.40
2023-05-08T13:48:57.872Z,18.43
2023-05-08T13:51:27.226Z,18.45
2023-05-08T13:53:55.013Z,18.48
2023-05-08T13:56:22.868Z,18.49
2023-05-08T13:58:50.727Z,18.51
2023-05-08T14:01:26.653Z,18.52
2023-05-08T14:03:55.043Z,18.53
2023-05-08T14:06:23.417Z,18.53
2023-05-08T14:08:54.631Z,18.53
2023-05-08T14:11:24.906Z,18.55
2023-05-08T14:13:52.761Z,18.58
2023-05-08T14:16:20.603Z,18.58
2023-05-08T14:18:48.749Z,18.59
2023-05-08T14:21:16.618Z,18.60
2023-05-08T14:23:45.107Z,18.60
2023-05-08T14:26:14.292Z,18.59
2023-05-08T14:28:42.114Z,18.59
2023-05-08T14:31:10.045Z,18.60
2023-05-08T14:33:37.888Z,18.61
2023-05-08T14:36:06.064Z,18.50
2023-05-08T14:38:33.898Z,18.65
2023-05-08T14:41:04.270Z,18.68
2023-05-08T14:43:34.343Z,18.74
2023-05-08T14:46:02.325Z,18.74
2023-05-08T14:48:30.239Z,18.74
2023-05-08T14:50:58.627Z,18.73
2023-05-08T14:53:26.770Z,18.75
2023-05-08T14:55:55.066Z,18.79
2023-05-08T14:58:23.555Z,18.78
2023-05-08T15:00:52.779Z,18.76
2023-05-08T15:03:20.698Z,18.75
2023-05-08T15:05:48.567Z,18.75
2023-05-08T15:08:16.664Z,18.75
2023-05-08T15:10:44.647Z,18.75
2023-05-08T15:13:12.569Z,18.77
2023-05-08T15:15:40.476Z,18.80
2023-05-08T15:18:09.666Z,18.84
2023-05-08T15:20:37.566Z,18.83
2023-05-08T15:23:05.641Z,18.83
2023-05-08T15:25:33.459Z,18.82
2023-05-08T15:28:01.490Z,18.81
2023-05-08T15:30:29.332Z,18.82
2023-05-08T15:32:57.234Z,18.83
2023-05-08T15:35:26.697Z,18.73
2023-05-08T15:37:55.248Z,18.82
2023-05-08T15:40:23.174Z,18.80
2023-05-08T15:42:50.954Z,18.81
2023-05-08T15:45:18.806Z,18.84
2023-05-08T15:47:46.937Z,18.85
2023-05-08T15:50:15.687Z,18.84
2023-05-08T15:52:44.907Z,18.87
2023-05-08T15:55:13.246Z,18.91
2023-05-08T15:57:41.265Z,18.86
2023-05-08T16:00:10.325Z,18.95
2023-05-08T16:02:38.144Z,18.95
2023-05-08T16:05:06.527Z,19.00
2023-05-08T16:07:34.321Z,19.01
2023-05-08T16:10:05.340Z,19.04
2023-05-08T16:12:34.540Z,19.00
2023-05-08T16:15:02.389Z,18.99
2023-05-08T16:17:30.265Z,18.98
2023-05-08T16:19:58.135Z,18.96
2023-05-08T16:22:26.068Z,18.95
2023-05-08T16:24:54.654Z,18.93
2023-05-08T16:27:23.847Z,18.91
2023-05-08T16:29:51.627Z,18.91
2023-05-08T16:32:19.421Z,18.90
2023-05-08T16:34:47.400Z,18.89
2023-05-08T16:37:15.134Z,18.88
2023-05-08T16:39:42.860Z,18.87
2023-05-08T16:42:10.734Z,18.84
2023-05-08T16:44:40.189Z,18.84
2023-05-08T16:47:08.044Z,18.84
2023-05-08T16:49:36.215Z,18.85
2023-05-08T16:52:04.026Z,18.84
2023-05-08T16:54:32.038Z,18.83
2023-05-08T16:57:00.025Z,18.84
2023-05-08T16:59:27.925Z,18.85
2023-05-08T17:01:57.127Z,18.89
2023-05-08T17:04:25.003Z,18.90
2023-05-08T17:06:53.050Z,18.90
2023-05-08T17:09:20.830Z,18.95
2023-05-08T17:11:48.581Z,18.97
2023-05-08T17:14:16.463Z,18.97
2023-05-08T17:16:44.450Z,18.97
2023-05-08T17:19:13.759Z,18.97
2023-05-08T17:21:41.600Z,18.98
2023-05-08T17:24:09.866Z,18.97
2023-05-08T17:26:37.682Z,18.96
2023-05-08T17:29:05.764Z,18.97
2023-05-08T17:31:33.544Z,19.01
2023-05-08T17:34:01.720Z,19.00
2023-05-08T17:36:31.013Z,18.99
2023-05-08T17:38:58.854Z,18.98
2023-05-08T17:41:26.601Z,18.97
2023-05-08T17:43:54.996Z,18.97
2023-05-08T17:46:23.039Z,18.96
2023-05-08T17:48:50.896Z,18.96
2023-05-08T17:51:18.872Z,18.96
2023-05-08T17:53:48.464Z,18.95
2023-05-08T17:56:20.313Z,18.84
2023-05-08T17:58:48.286Z,18.90
2023-05-08T18:01:16.108Z,18.90
2023-05-08T18:03:45.288Z,18.88
2023-05-08T18:06:16.103Z,18.86
2023-05-08T18:08:44.176Z,18.86
2023-05-08T18:11:21.234Z,18.80
2023-05-08T18:13:49.444Z,18.81
2023-05-08T18:16:19.099Z,18.80
2023-05-08T18:18:47.003Z,18.78
2023-05-08T18:21:15.074Z,18.75
2023-05-08T18:23:43.081Z,18.73
2023-05-08T18:26:15.035Z,18.72
2023-05-08T18:28:45.249Z,18.64
2023-05-08T18:31:13.845Z,18.70
2023-05-08T18:33:41.715Z,18.69
2023-05-08T18:36:09.520Z,18.68
2023-05-08T18:38:37.468Z,18.67
2023-05-08T18:41:07.163Z,18.66
2023-05-08T18:43:35.214Z,18.63
2023-05-08T18:46:12.241Z,18.62
2023-05-08T18:48:40.593Z,18.61
2023-05-08T18:51:08.419Z,18.61
2023-05-08T18:53:38.614Z,18.61
2023-05-08T18:56:07.235Z,18.61
2023-05-08T18:58:35.278Z,18.60
2023-05-08T19:01:03.122Z,18.59
2023-05-08T19:03:32.480Z,18.57
2023-05-08T19:06:00.309Z,18.57
2023-05-08T19:08:28.234Z,18.56
2023-05-08T19:10:56.098Z,18.57
2023-05-08T19:13:24.362Z,18.55
2023-05-08T19:15:54.567Z,18.56
2023-05-08T19:18:22.420Z,18.54
2023-05-08T19:20:51.552Z,18.54
2023-05-08T19:23:19.438Z,18.54
2023-05-08T19:25:47.272Z,18.54
2023-05-08T19:28:15.151Z,18.53
2023-05-08T19:30:42.972Z,18.52
2023-05-08T19:33:10.817Z,18.52
2023-05-08T19:35:38.699Z,18.51
2023-05-08T19:38:08.174Z,18.49
2023-05-08T19:40:48.038Z,18.48
2023-05-08T19:43:20.320Z,18.46
2023-05-08T19:45:48.323Z,18.45
2023-05-08T19:48:17.841Z,18.44
2023-05-08T19:50:46.260Z,18.43
2023-05-08T19:53:15.453Z,18.41
2023-05-08T19:55:43.237Z,18.40
2023-05-08T19:58:13.887Z,18.38
2023-05-08T20:00:41.860Z,18.37
2023-05-08T20:03:09.815Z,18.30
2023-05-08T20:05:37.757Z,18.34
2023-05-08T20:08:05.840Z,18.32
2023-05-08T20:10:35.241Z,18.32
2023-05-08T20:13:03.285Z,18.31
2023-05-08T20:15:31.166Z,18.29
2023-05-08T20:17:59.839Z,18.26
2023-05-08T20:20:29.769Z,18.25
2023-05-08T20:22:58.003Z,18.22
2023-05-08T20:25:25.915Z,18.21
2023-05-08T20:27:55.163Z,18.19
2023-05-08T20:30:23.838Z,18.19
2023-05-08T20:32:52.016Z,18.16
2023-05-08T20:35:20.053Z,18.13
2023-05-08T20:37:49.405Z,18.11
2023-05-08T20:40:17.405Z,18.10
2023-05-08T20:42:45.274Z,18.08
2023-05-08T20:45:14.551Z,18.06
2023-05-08T20:47:42.525Z,18.06
2023-05-08T20:50:10.773Z,18.04
2023-05-08T20:52:40.582Z,18.05
2023-05-08T20:55:10.404Z,18.04
2023-05-08T20:57:38.754Z,18.03
2023-05-08T21:00:08.458Z,18.02
2023-05-08T21:02:40.130Z,18.02
2023-05-08T21:05:08.529Z,18.01
2023-05-08T21:07:36.467Z,18.00
2023-05-08T21:10:05.618Z,17.91
2023-05-08T21:12:33.399Z,18.00
2023-05-08T21:15:01.710Z,18.00
2023-05-08T21:17:29.514Z,17.98
2023-05-08T21:19:58.851Z,17.98
2023-05-08T21:22:26.790Z,17.97
2023-05-08T21:24:54.596Z,17.97
2023-05-08T21:27:22.371Z,17.96
2023-05-08T21:29:50.124Z,17.94
2023-05-08T21:32:18.041Z,17.94
2023-05-08T21:34:45.872Z,17.93
2023-05-08T21:37:15.171Z,17.92
2023-05-08T21:39:43.034Z,17.90
2023-05-08T21:42:11.444Z,17.89
2023-05-08T21:44:39.209Z,17.87
2023-05-08T21:47:07.242Z,17.86
2023-05-08T21:49:34.974Z,17.84
2023-05-08T21:52:02.760Z,17.84
2023-05-08T21:54:32.093Z,17.82
2023-05-08T21:56:59.844Z,17.82
2023-05-08T21:59:27.621Z,17.81
2023-05-08T22:01:55.547Z,17.78
2023-05-08T22:04:23.412Z,17.77
2023-05-08T22:06:51.303Z,17.75
2023-05-08T22:09:19.273Z,17.73
2023-05-08T22:11:48.553Z,17.74
2023-05-08T22:14:16.872Z,17.72
2023-05-08T22:16:44.751Z,17.72
2023-05-08T22:19:12.546Z,17.70
2023-05-08T22:21:40.372Z,17.70
2023-05-08T22:24:09.100Z,17.68
2023-05-08T22:26:36.898Z,17.68
2023-05-08T22:29:08.272Z,17.67
2023-05-08T22:31:36.270Z,17.67
2023-05-08T22:34:04.263Z,17.67
2023-05-08T22:36:32.646Z,17.66
2023-05-08T22:39:01.109Z,17.65
2023-05-08T22:41:30.898Z,17.65
2023-05-08T22:43:58.842Z,17.64
2023-05-08T22:46:28.272Z,17.62
2023-05-08T22:48:56.181Z,17.62
2023-05-08T22:51:24.055Z,17.59
2023-05-08T22:53:52.170Z,17.60
2023-05-08T22:56:20.039Z,17.60
2023-05-08T22:58:48.175Z,17.59
2023-05-08T23:01:17.463Z,17.59
2023-05-08T23:03:47.336Z,17.58
2023-05-08T23:06:15.114Z,17.57
2023-05-08T23:08:42.954Z,17.57
2023-05-08T23:11:10.906Z,17.50
2023-05-08T23:13:38.708Z,17.55
2023-05-08T23:16:07.362Z,17.54
2023-05-08T23:18:35.217Z,17.53
2023-05-08T23:21:08.029Z,17.52
2023-05-08T23:23:36.331Z,17.51
2023-05-08T23:26:05.153Z,17.50
2023-05-08T23:28:33.994Z,17.47
2023-05-08T23:31:02.140Z,17.47
2023-05-08T23:33:29.976Z,17.45
2023-05-08T23:35:58.952Z,17.37
2023-05-08T23:38:28.130Z,17.44
2023-05-08T23:40:56.082Z,17.43
2023-05-08T23:43:23.849Z,17.41
2023-05-08T23:45:51.820Z,17.40
2023-05-08T23:48:19.622Z,17.39
2023-05-08T23:50:48.215Z,17.38
2023-05-08T23:53:16.598Z,17.36
2023-05-08T23:55:46.749Z,17.36
2023-05-08T23:58:14.523Z,17.30
